EDW34 LSZH-MDPC
Flight info
| Callsign | EDW34 |
|---|---|
| Flight time | N/A |
| Altitude | 30000 |
| Route | VEBIT T10 TORPA DCT REKLA DCT RLP DCT ROTSI DCT AMODO DCT COHPA UM729 RESMI UN491 LGL UN502 JSY DCT LIZAD DCT ARKIL/M081F300 DCT DINIM/M081F310 DCT 51N020W 50N030W 48N040W 46N050W DCT SUPRY/M083F340 DCT BOBTU M203 SELIM DCT 29N070W/N0485F360 DCT MNDEZ DCT ELMUC DCT KATOK KATOK2B |
| Aircraft | A343/H-SDE2E3FGHIJ4J5M1RWXY/LB1D1 |
Departure
| Time | N/A |
|---|---|
| Airport | Zürich Airport (LSZH) |
Arrival
| Time | 2026-05-08 14:30 |
|---|---|
| Airport | Punta Cana International Airport (MDPC) |
| Time | Latitude | Longitude | Altitude | Speed | Heading |
|---|---|---|---|---|---|
| 2026-05-08 13:57 | 21.64320 | -68.28408 | 36081 ft | 508 kts | 168° |
| 2026-05-08 13:57 | 21.60871 | -68.27597 | 36083 ft | 508 kts | 167° |
| 2026-05-08 13:58 | 21.53959 | -68.25973 | 36085 ft | 508 kts | 167° |
| 2026-05-08 13:58 | 21.47052 | -68.24352 | 36085 ft | 508 kts | 167° |
| 2026-05-08 13:59 | 21.40141 | -68.22732 | 36084 ft | 508 kts | 167° |
| 2026-05-08 13:59 | 21.33233 | -68.21114 | 36085 ft | 508 kts | 167° |
| 2026-05-08 14:00 | 21.26318 | -68.19496 | 36088 ft | 508 kts | 167° |
| 2026-05-08 14:00 | 21.19403 | -68.17879 | 36086 ft | 509 kts | 167° |
| 2026-05-08 14:01 | 21.12482 | -68.16262 | 36086 ft | 509 kts | 167° |
| 2026-05-08 14:01 | 21.05559 | -68.14647 | 36081 ft | 509 kts | 167° |
| 2026-05-08 14:02 | 20.98642 | -68.13034 | 36082 ft | 509 kts | 167° |
| 2026-05-08 14:02 | 20.91723 | -68.11423 | 36081 ft | 509 kts | 167° |
| 2026-05-08 14:03 | 20.84805 | -68.09813 | 36079 ft | 509 kts | 167° |
| 2026-05-08 14:03 | 20.77856 | -68.08411 | 36083 ft | 509 kts | 176° |
| 2026-05-08 14:04 | 20.70780 | -68.08012 | 36079 ft | 509 kts | 177° |
| 2026-05-08 14:04 | 20.63745 | -68.07695 | 36080 ft | 509 kts | 177° |
| 2026-05-08 14:05 | 20.56663 | -68.07386 | 36082 ft | 510 kts | 177° |
| 2026-05-08 14:05 | 20.50643 | -68.07126 | 36083 ft | 510 kts | 177° |
| 2026-05-08 14:06 | 20.44327 | -68.06854 | 36074 ft | 510 kts | 177° |
| 2026-05-08 14:06 | 20.40809 | -68.06703 | 35951 ft | 510 kts | 177° |
| 2026-05-08 14:06 | 20.37246 | -68.06550 | 35712 ft | 508 kts | 177° |
| 2026-05-08 14:06 | 20.33709 | -68.06399 | 35473 ft | 508 kts | 177° |
| 2026-05-08 14:07 | 20.30177 | -68.06247 | 35216 ft | 508 kts | 177° |
| 2026-05-08 14:07 | 20.26652 | -68.06096 | 34695 ft | 508 kts | 177° |
| 2026-05-08 14:07 | 20.23103 | -68.05944 | 34037 ft | 511 kts | 177° |
| 2026-05-08 14:07 | 20.19543 | -68.05792 | 33330 ft | 514 kts | 177° |
| 2026-05-08 14:08 | 20.15967 | -68.05638 | 32698 ft | 514 kts | 178° |
| 2026-05-08 14:08 | 20.12396 | -68.05486 | 32084 ft | 514 kts | 178° |
| 2026-05-08 14:08 | 20.08818 | -68.05333 | 31481 ft | 514 kts | 178° |
| 2026-05-08 14:08 | 20.05246 | -68.05180 | 30889 ft | 513 kts | 178° |
| 2026-05-08 14:09 | 20.01677 | -68.05028 | 30293 ft | 513 kts | 178° |
| 2026-05-08 14:09 | 19.98112 | -68.04875 | 29615 ft | 512 kts | 178° |
| 2026-05-08 14:09 | 19.94549 | -68.04724 | 28877 ft | 513 kts | 178° |
| 2026-05-08 14:09 | 19.90993 | -68.04572 | 28224 ft | 511 kts | 178° |
| 2026-05-08 14:10 | 19.87444 | -68.04421 | 27602 ft | 509 kts | 178° |
| 2026-05-08 14:10 | 19.83911 | -68.04270 | 27058 ft | 506 kts | 178° |
| 2026-05-08 14:10 | 19.80411 | -68.04121 | 26532 ft | 502 kts | 178° |
| 2026-05-08 14:10 | 19.76926 | -68.03973 | 25978 ft | 499 kts | 178° |
| 2026-05-08 14:11 | 19.73466 | -68.03825 | 25500 ft | 495 kts | 178° |
| 2026-05-08 14:11 | 19.70038 | -68.03680 | 24945 ft | 493 kts | 178° |
| 2026-05-08 14:11 | 19.66622 | -68.03535 | 24449 ft | 489 kts | 178° |
| 2026-05-08 14:11 | 19.63239 | -68.03391 | 23969 ft | 485 kts | 178° |
| 2026-05-08 14:12 | 19.59868 | -68.03248 | 23396 ft | 484 kts | 178° |
| 2026-05-08 14:12 | 19.56532 | -68.03106 | 22745 ft | 476 kts | 178° |
| 2026-05-08 14:12 | 19.53238 | -68.02966 | 21829 ft | 473 kts | 178° |
| 2026-05-08 14:12 | 19.49943 | -68.02826 | 21234 ft | 471 kts | 178° |
| 2026-05-08 14:13 | 19.46709 | -68.02689 | 20408 ft | 459 kts | 178° |
| 2026-05-08 14:13 | 19.43566 | -68.02556 | 19691 ft | 443 kts | 177° |
| 2026-05-08 14:13 | 19.40548 | -68.02429 | 19223 ft | 424 kts | 177° |
| 2026-05-08 14:13 | 19.37611 | -68.02304 | 18752 ft | 426 kts | 177° |
| 2026-05-08 14:14 | 19.34638 | -68.02178 | 18248 ft | 428 kts | 177° |
| 2026-05-08 14:14 | 19.31701 | -68.02053 | 17708 ft | 428 kts | 177° |
| 2026-05-08 14:14 | 19.28729 | -68.01928 | 17213 ft | 426 kts | 177° |
| 2026-05-08 14:14 | 19.25773 | -68.01802 | 16725 ft | 425 kts | 177° |
| 2026-05-08 14:15 | 19.22814 | -68.01677 | 16180 ft | 425 kts | 177° |
| 2026-05-08 14:15 | 19.19859 | -68.01552 | 15668 ft | 424 kts | 177° |
| 2026-05-08 14:15 | 19.16919 | -68.01428 | 15180 ft | 422 kts | 177° |
| 2026-05-08 14:15 | 19.14007 | -68.01305 | 14938 ft | 413 kts | 177° |
| 2026-05-08 14:16 | 19.11175 | -68.01186 | 14829 ft | 402 kts | 177° |
| 2026-05-08 14:16 | 19.08415 | -68.01069 | 14655 ft | 392 kts | 177° |
| 2026-05-08 14:16 | 19.05720 | -68.00956 | 14487 ft | 383 kts | 177° |
| 2026-05-08 14:16 | 19.03088 | -68.00845 | 14345 ft | 374 kts | 177° |
| 2026-05-08 14:17 | 19.00518 | -68.00736 | 14211 ft | 366 kts | 177° |
| 2026-05-08 14:17 | 18.98002 | -68.00630 | 14056 ft | 358 kts | 177° |
| 2026-05-08 14:17 | 18.95539 | -68.00526 | 13922 ft | 351 kts | 177° |
| 2026-05-08 14:17 | 18.93127 | -68.00425 | 13797 ft | 343 kts | 177° |
| 2026-05-08 14:18 | 18.90773 | -68.00326 | 13656 ft | 335 kts | 177° |
| 2026-05-08 14:18 | 18.88464 | -68.00229 | 13516 ft | 329 kts | 177° |
| 2026-05-08 14:18 | 18.86203 | -68.00152 | 13364 ft | 322 kts | 180° |
| 2026-05-08 14:18 | 18.84039 | -68.00606 | 13177 ft | 316 kts | 207° |
| 2026-05-08 14:19 | 18.82380 | -68.02040 | 12971 ft | 308 kts | 237° |
| 2026-05-08 14:19 | 18.81412 | -68.04027 | 12678 ft | 304 kts | 250° |
| 2026-05-08 14:19 | 18.80632 | -68.06107 | 12387 ft | 304 kts | 251° |
| 2026-05-08 14:19 | 18.79865 | -68.08166 | 12080 ft | 300 kts | 250° |
| 2026-05-08 14:20 | 18.79096 | -68.10201 | 11693 ft | 298 kts | 250° |
| 2026-05-08 14:20 | 18.78321 | -68.12229 | 11268 ft | 298 kts | 249° |
| 2026-05-08 14:20 | 18.77543 | -68.14253 | 10834 ft | 298 kts | 249° |
| 2026-05-08 14:20 | 18.76764 | -68.16269 | 10489 ft | 295 kts | 249° |
| 2026-05-08 14:21 | 18.75990 | -68.18267 | 10139 ft | 293 kts | 248° |
| 2026-05-08 14:21 | 18.75219 | -68.20254 | 9847 ft | 294 kts | 249° |
| 2026-05-08 14:21 | 18.74448 | -68.22243 | 9589 ft | 292 kts | 249° |
| 2026-05-08 14:21 | 18.73678 | -68.24225 | 9313 ft | 292 kts | 248° |
| 2026-05-08 14:22 | 18.72911 | -68.26197 | 9124 ft | 290 kts | 248° |
| 2026-05-08 14:22 | 18.72148 | -68.28159 | 9008 ft | 289 kts | 248° |
| 2026-05-08 14:22 | 18.71382 | -68.30128 | 8934 ft | 289 kts | 248° |
| 2026-05-08 14:22 | 18.70623 | -68.32079 | 8655 ft | 288 kts | 248° |
| 2026-05-08 14:23 | 18.69869 | -68.34009 | 8372 ft | 287 kts | 247° |
| 2026-05-08 14:23 | 18.69097 | -68.35943 | 8115 ft | 285 kts | 247° |
| 2026-05-08 14:23 | 18.68329 | -68.37865 | 7881 ft | 283 kts | 247° |
| 2026-05-08 14:23 | 18.67578 | -68.39789 | 7579 ft | 283 kts | 250° |
| 2026-05-08 14:24 | 18.66997 | -68.41775 | 7285 ft | 284 kts | 255° |
| 2026-05-08 14:24 | 18.66491 | -68.43786 | 7093 ft | 282 kts | 255° |
| 2026-05-08 14:24 | 18.65996 | -68.45775 | 6845 ft | 280 kts | 255° |
| 2026-05-08 14:24 | 18.65508 | -68.47739 | 6613 ft | 277 kts | 255° |
| 2026-05-08 14:25 | 18.65014 | -68.49712 | 6379 ft | 274 kts | 255° |
| 2026-05-08 14:25 | 18.64533 | -68.51629 | 6244 ft | 267 kts | 254° |
| 2026-05-08 14:25 | 18.64056 | -68.53488 | 6124 ft | 259 kts | 251° |
| 2026-05-08 14:25 | 18.63186 | -68.55093 | 5913 ft | 249 kts | 219° |
| 2026-05-08 14:26 | 18.61682 | -68.55845 | 5684 ft | 238 kts | 182° |
| 2026-05-08 14:26 | 18.60055 | -68.55808 | 5473 ft | 232 kts | 171° |
| 2026-05-08 14:26 | 18.58460 | -68.55633 | 5244 ft | 230 kts | 170° |
| 2026-05-08 14:26 | 18.56917 | -68.55264 | 5010 ft | 225 kts | 153° |
| 2026-05-08 14:27 | 18.55736 | -68.54243 | 4555 ft | 220 kts | 120° |
| 2026-05-08 14:27 | 18.55306 | -68.52735 | 4197 ft | 214 kts | 90° |
| 2026-05-08 14:27 | 18.55389 | -68.51219 | 4051 ft | 199 kts | 85° |
| 2026-05-08 14:27 | 18.55529 | -68.49833 | 3883 ft | 183 kts | 85° |
| 2026-05-08 14:28 | 18.55659 | -68.48531 | 3628 ft | 173 kts | 85° |
| 2026-05-08 14:28 | 18.55774 | -68.47330 | 3434 ft | 158 kts | 85° |
| 2026-05-08 14:28 | 18.55879 | -68.46205 | 3172 ft | 151 kts | 86° |
| 2026-05-08 14:28 | 18.55975 | -68.45119 | 2793 ft | 149 kts | 87° |
| 2026-05-08 14:29 | 18.56039 | -68.44399 | 2548 ft | 148 kts | 87° |
| 2026-05-08 14:29 | 18.56136 | -68.43291 | 1930 ft | 159 kts | 86° |
| 2026-05-08 14:29 | 18.56277 | -68.41679 | 1163 ft | 168 kts | 86° |
| 2026-05-08 14:29 | 18.56388 | -68.40473 | 748 ft | 164 kts | 86° |
| 2026-05-08 14:30 | 18.56479 | -68.39308 | 387 ft | 154 kts | 85° |
| 2026-05-08 14:30 | 18.56578 | -68.38224 | 168 ft | 142 kts | 85° |
| 2026-05-08 14:30 | 18.56664 | -68.37232 | 55 ft | 126 kts | 86° |
| 2026-05-08 14:30 | 18.56717 | -68.36576 | 55 ft | 48 kts | 84° |
| 2026-05-08 14:31 | 18.56727 | -68.36463 | 50 ft | 11 kts | 85° |
| 2026-05-08 14:31 | 18.56696 | -68.36420 | 53 ft | 7 kts | 158° |
| 2026-05-08 14:31 | 18.56646 | -68.36416 | 51 ft | 8 kts | 178° |
| 2026-05-08 14:32 | 18.56521 | -68.36406 | 52 ft | 9 kts | 173° |
| 2026-05-08 14:32 | 18.56454 | -68.36398 | 54 ft | 10 kts | 175° |
| 2026-05-08 14:32 | 18.56387 | -68.36392 | 47 ft | 8 kts | 175° |
| 2026-05-08 14:32 | 18.56381 | -68.36392 | 54 ft | 1 kts | 175° |
| 2026-05-08 14:33 | 18.56380 | -68.36391 | 54 ft | 0 kts | 175° |